createdAt,value
2022-12-19T00:00:43.101Z,13.88
2022-12-19T00:03:11.423Z,17.17
2022-12-19T00:05:40.914Z,16.55
2022-12-19T00:08:17.359Z,9.57
2022-12-19T00:10:56.053Z,11.77
2022-12-19T00:13:24.577Z,13.93
2022-12-19T00:15:53.182Z,20.77
2022-12-19T00:18:21.313Z,14.57
2022-12-19T00:21:01.088Z,19.87
2022-12-19T00:23:30.878Z,13.23
2022-12-19T00:26:25.857Z,18.30
2022-12-19T00:28:57.282Z,17.00
2022-12-19T00:31:26.734Z,16.87
2022-12-19T00:33:58.694Z,13.05
2022-12-19T00:36:30.745Z,14.52
2022-12-19T00:39:01.128Z,10.80
2022-12-19T00:41:34.111Z,15.65
2022-12-19T00:44:05.304Z,14.48
2022-12-19T00:46:36.145Z,15.13
2022-12-19T00:49:05.756Z,10.80
2022-12-19T00:51:37.907Z,19.05
2022-12-19T00:54:11.130Z,17.77
2022-12-19T00:56:39.814Z,20.55
2022-12-19T00:59:09.208Z,14.87
2022-12-19T01:01:40.314Z,17.48
2022-12-19T01:04:29.539Z,14.35
2022-12-19T01:07:02.037Z,15.18
2022-12-19T01:09:34.101Z,16.37
2022-12-19T01:12:24.494Z,12.00
2022-12-19T01:14:57.739Z,11.02
2022-12-19T01:17:43.560Z,16.48
2022-12-19T01:20:29.062Z,13.73
2022-12-19T01:22:59.934Z,15.30
2022-12-19T01:25:31.672Z,10.15
2022-12-19T01:28:01.166Z,9.85
2022-12-19T01:30:33.288Z,11.88
2022-12-19T01:33:02.290Z,15.30
2022-12-19T01:35:30.602Z,13.45
2022-12-19T01:38:07.918Z,11.30
2022-12-19T01:40:38.483Z,11.02
2022-12-19T01:43:07.257Z,12.98
2022-12-19T01:45:43.803Z,15.65
2022-12-19T01:48:32.030Z,15.32
2022-12-19T01:51:03.317Z,17.98
2022-12-19T01:53:45.806Z,15.75
2022-12-19T01:56:24.817Z,16.12
2022-12-19T01:59:05.599Z,14.10
2022-12-19T02:01:40.889Z,16.67
2022-12-19T02:04:25.841Z,13.82
2022-12-19T02:06:57.105Z,12.10
2022-12-19T02:09:25.934Z,11.73
2022-12-19T02:11:54.605Z,13.32
2022-12-19T02:14:22.636Z,12.23
2022-12-19T02:17:35.238Z,14.52
2022-12-19T02:20:29.348Z,14.67
2022-12-19T02:23:01.559Z,13.23
2022-12-19T02:25:51.273Z,11.50
2022-12-19T02:28:33.229Z,15.80
2022-12-19T02:31:21.456Z,10.13
2022-12-19T02:34:11.617Z,12.73
2022-12-19T02:37:09.513Z,12.70
2022-12-19T02:39:51.220Z,14.35
2022-12-19T02:42:32.179Z,12.10
2022-12-19T02:45:02.816Z,13.70
2022-12-19T02:47:34.366Z,12.45
2022-12-19T02:50:04.769Z,13.70
2022-12-19T02:52:32.905Z,10.75
2022-12-19T02:55:06.547Z,12.77
2022-12-19T02:58:05.391Z,13.75
2022-12-19T03:00:45.947Z,14.80
2022-12-19T03:03:45.741Z,15.48
2022-12-19T03:06:33.273Z,20.42
2022-12-19T03:09:17.485Z,14.30
2022-12-19T03:11:50.305Z,14.27
2022-12-19T03:14:21.569Z,17.08
2022-12-19T03:16:50.158Z,19.30
2022-12-19T03:19:18.436Z,22.75
2022-12-19T03:21:50.981Z,18.80
2022-12-19T03:24:19.986Z,15.52
2022-12-19T03:26:54.138Z,12.70
2022-12-19T03:29:34.576Z,15.52
2022-12-19T03:32:07.837Z,11.20
2022-12-19T03:34:50.586Z,13.02
2022-12-19T03:37:26.676Z,8.43
2022-12-19T03:39:59.802Z,13.40
2022-12-19T03:45:45.465Z,12.52
2022-12-19T03:48:31.341Z,10.80
2022-12-19T03:51:11.833Z,12.32
2022-12-19T03:53:59.338Z,11.88
2022-12-19T03:56:38.712Z,12.15
2022-12-19T04:00:11.126Z,9.25
2022-12-19T04:02:44.718Z,12.18
2022-12-19T04:05:21.759Z,14.70
2022-12-19T04:07:51.554Z,12.32
2022-12-19T04:10:23.239Z,11.82
2022-12-19T04:13:09.103Z,13.48
2022-12-19T04:15:49.406Z,12.32
2022-12-19T04:18:19.323Z,10.90
2022-12-19T04:21:02.390Z,9.40
2022-12-19T04:23:39.673Z,11.30
2022-12-19T04:26:09.301Z,6.00
2022-12-19T04:28:54.946Z,8.23
2022-12-19T04:31:23.961Z,6.28
2022-12-19T04:33:51.746Z,6.68
2022-12-19T04:36:19.836Z,5.50
2022-12-19T04:38:48.150Z,6.87
2022-12-19T04:41:15.980Z,5.70
2022-12-19T04:43:43.837Z,5.78
2022-12-19T04:46:15.680Z,4.60
2022-12-19T04:48:46.495Z,7.07
2022-12-19T04:51:16.871Z,10.25
2022-12-19T04:53:44.977Z,8.55
2022-12-19T04:56:13.084Z,6.85
2022-12-19T04:58:41.270Z,8.05
2022-12-19T05:01:09.835Z,7.60
2022-12-19T05:03:37.721Z,8.15
2022-12-19T05:06:13.123Z,6.68
2022-12-19T05:08:42.904Z,7.70
2022-12-19T05:11:19.173Z,9.60
2022-12-19T05:13:47.681Z,9.75
2022-12-19T05:16:16.327Z,7.47
2022-12-19T05:18:44.617Z,7.57
2022-12-19T05:21:12.477Z,11.75
2022-12-19T05:23:40.731Z,10.80
2022-12-19T05:26:08.775Z,7.53
2022-12-19T05:28:36.711Z,9.48
2022-12-19T05:31:13.240Z,7.18
2022-12-19T05:33:42.224Z,9.43
2022-12-19T05:36:11.923Z,11.07
2022-12-19T05:38:39.942Z,8.02
2022-12-19T05:41:10.179Z,7.35
2022-12-19T05:43:38.448Z,13.60
2022-12-19T05:46:07.757Z,5.55
2022-12-19T05:48:36.535Z,6.93
2022-12-19T05:51:05.154Z,8.98
2022-12-19T05:53:35.596Z,7.70
2022-12-19T05:56:11.423Z,7.85
2022-12-19T05:58:40.965Z,10.35
2022-12-19T06:01:14.172Z,6.12
2022-12-19T06:03:43.510Z,5.03
2022-12-19T06:06:14.091Z,7.95
2022-12-19T06:08:42.861Z,6.15
2022-12-19T06:11:12.968Z,7.30
2022-12-19T06:13:42.142Z,7.75
2022-12-19T06:16:19.474Z,9.57
2022-12-19T06:18:47.918Z,8.00
2022-12-19T06:21:22.236Z,5.80
2022-12-19T06:23:50.271Z,9.02
2022-12-19T06:26:20.869Z,5.97
2022-12-19T06:28:50.824Z,8.20
2022-12-19T06:31:21.213Z,10.10
2022-12-19T06:33:49.431Z,9.32
2022-12-19T06:36:23.688Z,8.75
2022-12-19T06:38:52.873Z,9.90
2022-12-19T06:41:39.759Z,9.27
2022-12-19T06:44:11.518Z,12.07
2022-12-19T06:46:41.852Z,8.50
2022-12-19T06:49:11.208Z,12.40
2022-12-19T06:51:39.378Z,6.87
2022-12-19T06:54:07.163Z,9.10
2022-12-19T06:56:40.738Z,12.88
2022-12-19T06:59:15.399Z,6.93
2022-12-19T07:01:44.819Z,9.50
2022-12-19T07:04:16.742Z,7.87
2022-12-19T07:06:49.328Z,10.50
2022-12-19T07:09:18.563Z,13.35
2022-12-19T07:11:46.793Z,11.10
2022-12-19T07:14:14.676Z,9.68
2022-12-19T07:16:42.824Z,13.18
2022-12-19T07:19:11.639Z,9.73
2022-12-19T07:21:39.631Z,10.45
2022-12-19T07:24:08.852Z,6.53
2022-12-19T07:26:37.634Z,9.95
2022-12-19T07:29:05.786Z,10.55
2022-12-19T07:31:36.168Z,13.57
2022-12-19T07:34:04.605Z,10.73
2022-12-19T07:36:32.712Z,11.65
2022-12-19T07:39:00.561Z,7.95
2022-12-19T07:41:28.765Z,7.12
2022-12-19T07:43:56.467Z,16.05
2022-12-19T07:46:24.365Z,11.27
2022-12-19T07:48:52.453Z,12.68
2022-12-19T07:51:20.262Z,9.48
2022-12-19T07:53:48.232Z,12.70
2022-12-19T07:56:17.726Z,15.98
2022-12-19T07:58:45.819Z,12.65
2022-12-19T08:01:13.823Z,9.48
2022-12-19T08:03:42.037Z,10.50
2022-12-19T08:06:10.098Z,9.77
2022-12-19T08:08:38.086Z,10.73
2022-12-19T08:11:08.540Z,12.00
2022-12-19T08:13:40.888Z,12.13
2022-12-19T08:16:13.052Z,11.23
2022-12-19T08:18:40.976Z,16.58
2022-12-19T08:21:09.822Z,14.05
2022-12-19T08:23:41.463Z,10.55
2022-12-19T08:26:12.975Z,10.38
2022-12-19T08:28:41.348Z,11.52
2022-12-19T08:31:17.935Z,9.05
2022-12-19T08:33:47.662Z,11.30
2022-12-19T08:36:19.155Z,7.32
2022-12-19T08:38:51.234Z,11.45
2022-12-19T08:41:19.821Z,11.60
2022-12-19T08:43:52.239Z,11.93
2022-12-19T08:46:22.395Z,11.88
2022-12-19T08:48:50.678Z,9.85
2022-12-19T08:51:18.890Z,10.27
2022-12-19T08:53:48.112Z,12.13
2022-12-19T08:56:19.195Z,10.65
2022-12-19T08:58:48.323Z,10.10
2022-12-19T09:01:24.197Z,9.00
2022-12-19T09:04:56.786Z,11.57
2022-12-19T09:06:40.987Z,10.13
2022-12-19T09:09:09.243Z,9.80
2022-12-19T09:11:45.747Z,13.05
2022-12-19T09:14:21.146Z,10.25
2022-12-19T09:16:49.626Z,10.30
2022-12-19T09:19:18.363Z,13.05
2022-12-19T09:21:46.324Z,16.92
2022-12-19T09:24:14.967Z,13.93
2022-12-19T09:26:44.381Z,13.35
2022-12-19T09:29:20.487Z,13.20
2022-12-19T09:31:55.768Z,18.37
2022-12-19T09:34:36.854Z,18.30
2022-12-19T09:37:08.965Z,11.87
2022-12-19T09:39:39.578Z,13.40
2022-12-19T09:42:32.096Z,11.63
2022-12-19T09:45:33.826Z,14.52
2022-12-19T09:48:03.030Z,19.90
2022-12-19T09:50:39.363Z,15.45
2022-12-19T09:53:40.290Z,14.10
2022-12-19T09:56:15.360Z,24.20
2022-12-19T09:58:50.031Z,22.02
2022-12-19T10:01:25.036Z,13.98
2022-12-19T10:04:10.641Z,16.67
2022-12-19T10:07:19.796Z,17.70
2022-12-19T10:12:12.718Z,10.18
2022-12-19T10:12:45.180Z,15.90
2022-12-19T10:15:26.490Z,13.05
2022-12-19T10:18:13.290Z,12.15
2022-12-19T10:21:36.978Z,16.35
2022-12-19T10:24:22.673Z,12.30
2022-12-19T10:26:53.652Z,12.65
2022-12-19T10:29:57.290Z,14.63
2022-12-19T10:32:28.901Z,12.48
2022-12-19T10:34:57.403Z,9.38
2022-12-19T10:37:40.678Z,10.40
2022-12-19T10:40:37.542Z,11.25
2022-12-19T10:43:33.623Z,12.43
2022-12-19T10:46:11.819Z,15.52
2022-12-19T10:48:39.950Z,12.48
2022-12-19T10:51:14.078Z,11.30
2022-12-19T10:53:52.903Z,11.27
2022-12-19T10:56:36.784Z,8.65
2022-12-19T10:59:20.833Z,11.82
2022-12-19T11:04:33.479Z,12.55
2022-12-19T11:07:04.187Z,7.97
2022-12-19T11:09:40.224Z,10.60
2022-12-19T11:15:30.672Z,9.25
2022-12-19T11:21:16.704Z,11.15
2022-12-19T11:29:17.225Z,12.48
2022-12-19T11:29:25.646Z,12.23
2022-12-19T11:30:38.847Z,16.58
2022-12-19T11:30:47.267Z,13.75
2022-12-19T11:32:42.091Z,12.30
2022-12-19T11:35:25.385Z,12.85
2022-12-19T11:38:08.718Z,14.10
2022-12-19T11:40:49.198Z,11.73
2022-12-19T11:43:46.619Z,15.43
2022-12-19T11:46:33.315Z,11.68
2022-12-19T11:49:12.123Z,13.07
2022-12-19T11:52:01.127Z,15.23
2022-12-19T11:54:48.837Z,10.90
2022-12-19T11:57:18.216Z,14.23
2022-12-19T11:59:47.209Z,16.70
2022-12-19T12:02:33.099Z,10.60
2022-12-19T12:05:04.095Z,13.48
2022-12-19T12:08:32.643Z,16.10
2022-12-19T12:12:15.642Z,15.23
2022-12-19T12:22:05.111Z,13.98
2022-12-19T12:30:15.540Z,14.85
2022-12-19T12:31:10.434Z,12.85
2022-12-19T12:31:47.165Z,13.50
2022-12-19T12:31:58.472Z,11.63
2022-12-19T12:32:02.059Z,16.30
2022-12-19T12:35:16.375Z,18.08
2022-12-19T12:39:16.042Z,10.30
2022-12-19T12:42:08.429Z,14.05
2022-12-19T12:44:45.116Z,13.18
2022-12-19T12:47:28.071Z,10.30
2022-12-19T12:50:02.625Z,13.82
2022-12-19T12:52:39.829Z,10.63
2022-12-19T12:55:29.036Z,15.50
2022-12-19T12:57:59.355Z,14.13
2022-12-19T13:00:32.298Z,13.85
2022-12-19T13:03:19.316Z,10.73
2022-12-19T13:05:47.113Z,13.30
2022-12-19T13:08:39.557Z,18.35
2022-12-19T13:11:53.994Z,11.02
2022-12-19T13:14:40.903Z,15.77
2022-12-19T13:17:12.766Z,14.52
2022-12-19T13:20:21.543Z,11.70
2022-12-19T13:22:59.190Z,16.35
2022-12-19T13:25:27.383Z,14.93
2022-12-19T13:28:19.470Z,11.27
2022-12-19T13:31:18.690Z,13.82
2022-12-19T13:33:55.884Z,11.68
2022-12-19T13:39:57.595Z,16.90
2022-12-19T13:40:11.203Z,10.55
2022-12-19T13:43:19.132Z,14.15
2022-12-19T13:45:55.306Z,15.85
2022-12-19T13:48:30.803Z,17.23
2022-12-19T13:51:05.162Z,15.30
2022-12-19T13:53:33.604Z,16.10
2022-12-19T13:56:07.154Z,12.80
2022-12-19T13:58:38.992Z,12.93
2022-12-19T14:01:27.783Z,11.88
2022-12-19T14:04:07.734Z,11.45
2022-12-19T14:06:50.775Z,13.50
2022-12-19T14:11:27.310Z,14.38
2022-12-19T14:13:50.926Z,18.62
2022-12-19T14:15:52.464Z,15.30
2022-12-19T14:18:44.993Z,14.90
2022-12-19T14:22:06.033Z,22.40
2022-12-19T14:24:21.896Z,23.42
2022-12-19T14:28:17.163Z,24.08
2022-12-19T14:30:30.584Z,16.37
2022-12-19T14:33:43.987Z,17.77
2022-12-19T14:36:10.283Z,16.58
2022-12-19T14:39:27.689Z,17.95
2022-12-19T14:41:47.649Z,18.67
2022-12-19T14:54:06.892Z,14.13
2022-12-19T14:54:23.411Z,14.38
2022-12-19T14:54:24.919Z,20.40
2022-12-19T14:54:47.650Z,19.12
2022-12-19T14:59:42.479Z,19.45
2022-12-19T15:02:27.998Z,19.40
2022-12-19T15:05:08.140Z,13.73
2022-12-19T15:07:42.625Z,18.87
2022-12-19T15:11:04.816Z,16.75
2022-12-19T15:14:58.688Z,17.90
2022-12-19T15:16:36.512Z,18.42
2022-12-19T15:19:11.663Z,19.85
2022-12-19T15:21:39.506Z,22.87
2022-12-19T15:24:08.861Z,20.52
2022-12-19T15:26:47.905Z,22.13
2022-12-19T15:29:21.651Z,26.90
2022-12-19T15:31:50.577Z,24.48
2022-12-19T15:34:41.677Z,23.67
2022-12-19T15:37:16.385Z,27.52
2022-12-19T15:39:45.626Z,49.83
2022-12-19T15:42:23.234Z,51.00
2022-12-19T15:44:54.135Z,34.72
2022-12-19T15:47:33.794Z,35.50
2022-12-19T15:50:14.558Z,33.15
2022-12-19T15:52:42.482Z,19.27
2022-12-19T15:55:15.781Z,18.52
2022-12-19T15:57:58.929Z,24.67
2022-12-19T16:00:31.977Z,15.15
2022-12-19T16:05:48.817Z,19.02
2022-12-19T16:08:20.641Z,16.87
2022-12-19T16:11:00.980Z,19.80
2022-12-19T16:13:32.627Z,16.23
2022-12-19T16:16:01.863Z,17.85
2022-12-19T16:18:30.245Z,18.20
2022-12-19T16:20:58.070Z,12.35
2022-12-19T16:23:26.379Z,24.10
2022-12-19T16:25:55.130Z,20.00
2022-12-19T16:28:29.443Z,14.07
2022-12-19T16:30:59.479Z,17.70
2022-12-19T16:33:30.015Z,15.65
2022-12-19T16:36:07.141Z,14.13
2022-12-19T16:38:36.550Z,17.95
2022-12-19T16:41:05.160Z,12.02
2022-12-19T16:43:37.599Z,20.92
2022-12-19T16:48:38.310Z,20.05
2022-12-19T16:51:17.436Z,20.00
2022-12-19T16:53:48.385Z,18.00
2022-12-19T16:56:26.365Z,15.63
2022-12-19T16:58:55.639Z,15.88
2022-12-19T17:01:24.084Z,16.00
2022-12-19T17:03:52.121Z,18.12
2022-12-19T17:06:21.565Z,19.12
2022-12-19T17:08:50.006Z,15.68
2022-12-19T17:11:24.771Z,20.20
2022-12-19T17:14:00.834Z,17.02
2022-12-19T17:16:30.368Z,18.67
2022-12-19T17:18:59.320Z,19.80
2022-12-19T17:21:27.169Z,14.82
2022-12-19T17:23:55.038Z,15.20
2022-12-19T17:26:23.461Z,15.60
2022-12-19T17:28:51.484Z,14.45
2022-12-19T17:31:38.300Z,18.40
2022-12-19T17:34:13.602Z,17.33
2022-12-19T17:36:41.692Z,17.75
2022-12-19T17:39:24.969Z,16.80
2022-12-19T17:42:07.206Z,16.00
2022-12-19T17:44:35.412Z,15.35
2022-12-19T17:47:05.491Z,17.48
2022-12-19T17:49:35.753Z,16.95
2022-12-19T17:52:16.309Z,13.20
2022-12-19T17:54:44.420Z,20.42
2022-12-19T17:57:15.633Z,16.80
2022-12-19T17:59:43.796Z,13.13
2022-12-19T18:02:25.111Z,19.80
2022-12-19T18:04:54.016Z,16.10
2022-12-19T18:07:22.059Z,19.52
2022-12-19T18:09:50.112Z,14.68
2022-12-19T18:12:18.656Z,15.38
2022-12-19T18:14:46.441Z,19.58
2022-12-19T18:17:21.101Z,17.30
2022-12-19T18:19:49.346Z,14.77
2022-12-19T18:22:17.326Z,14.00
2022-12-19T18:24:45.243Z,13.10
2022-12-19T18:27:13.541Z,12.45
2022-12-19T18:29:41.504Z,13.73
2022-12-19T18:32:19.217Z,13.80
2022-12-19T18:34:47.532Z,13.90
2022-12-19T18:37:16.259Z,13.20
2022-12-19T18:39:44.486Z,12.43
2022-12-19T18:42:21.507Z,13.10
2022-12-19T18:44:49.474Z,12.10
2022-12-19T18:47:23.687Z,12.07
2022-12-19T18:49:54.720Z,12.82
2022-12-19T18:52:23.037Z,14.73
2022-12-19T18:54:51.995Z,11.18
2022-12-19T18:57:20.627Z,12.30
2022-12-19T18:59:50.457Z,17.20
2022-12-19T19:02:27.913Z,14.23
2022-12-19T19:04:56.420Z,14.35
2022-12-19T19:07:24.347Z,15.18
2022-12-19T19:09:52.295Z,14.95
2022-12-19T19:12:22.539Z,15.90
2022-12-19T19:14:50.446Z,8.98
2022-12-19T19:17:27.174Z,13.00
2022-12-19T19:20:01.346Z,14.27
2022-12-19T19:22:31.159Z,15.27
2022-12-19T19:25:00.000Z,13.93
2022-12-19T19:27:27.881Z,13.52
2022-12-19T19:29:55.723Z,15.93
2022-12-19T19:32:24.247Z,14.87
2022-12-19T19:34:52.780Z,11.93
2022-12-19T19:37:21.316Z,13.95
2022-12-19T19:39:52.390Z,15.30
2022-12-19T19:42:20.408Z,13.52
2022-12-19T19:44:49.150Z,16.40
2022-12-19T19:47:17.572Z,13.50
2022-12-19T19:49:45.469Z,8.73
2022-12-19T19:52:13.263Z,10.90
2022-12-19T19:54:41.589Z,12.57
2022-12-19T19:57:10.064Z,10.85
2022-12-19T19:59:37.998Z,12.48
2022-12-19T20:02:11.489Z,9.75
2022-12-19T20:04:40.262Z,12.25
2022-12-19T20:07:08.187Z,12.68
2022-12-19T20:09:36.157Z,10.77
2022-12-19T20:12:04.489Z,12.98
2022-12-19T20:14:32.292Z,8.60
2022-12-19T20:16:59.977Z,10.20
2022-12-19T20:19:28.042Z,14.52
2022-12-19T20:21:55.793Z,12.00
2022-12-19T20:24:23.634Z,8.40
2022-12-19T20:26:51.732Z,13.35
2022-12-19T20:29:19.392Z,10.05
2022-12-19T20:31:47.272Z,14.60
2022-12-19T20:34:16.298Z,13.77
2022-12-19T20:36:44.125Z,8.27
2022-12-19T20:39:11.949Z,11.98
2022-12-19T20:41:40.218Z,11.15
2022-12-19T20:44:08.028Z,13.00
2022-12-19T20:46:35.979Z,7.07
2022-12-19T20:49:05.127Z,6.57
2022-12-19T20:51:32.855Z,8.23
2022-12-19T20:54:00.659Z,6.18
2022-12-19T20:56:28.915Z,7.00
2022-12-19T20:58:57.222Z,8.68
2022-12-19T21:01:25.823Z,10.30
2022-12-19T21:03:54.396Z,7.50
2022-12-19T21:06:25.679Z,5.37
2022-12-19T21:08:55.372Z,9.48
2022-12-19T21:11:25.334Z,8.85
2022-12-19T21:13:53.778Z,8.52
2022-12-19T21:16:22.656Z,8.63
2022-12-19T21:18:51.601Z,11.35
2022-12-19T21:21:23.896Z,8.80
2022-12-19T21:23:53.160Z,10.02
2022-12-19T21:26:22.096Z,7.32
2022-12-19T21:28:49.972Z,6.03
2022-12-19T21:31:26.790Z,7.65
2022-12-19T21:33:56.429Z,6.43
2022-12-19T21:36:26.102Z,4.70
2022-12-19T21:38:56.113Z,7.97
2022-12-19T21:41:24.497Z,8.45
2022-12-19T21:43:55.587Z,9.27
2022-12-19T21:46:26.014Z,8.82
2022-12-19T21:48:55.976Z,8.93
2022-12-19T21:51:26.977Z,5.80
2022-12-19T21:53:57.051Z,7.18
2022-12-19T21:56:27.732Z,6.20
2022-12-19T21:59:04.241Z,9.65
2022-12-19T22:01:33.534Z,11.12
2022-12-19T22:04:09.199Z,9.50
2022-12-19T22:06:39.240Z,11.45
2022-12-19T22:09:09.986Z,9.48
2022-12-19T22:11:41.060Z,11.65
2022-12-19T22:14:11.010Z,10.60
2022-12-19T22:16:39.344Z,13.02
2022-12-19T22:19:07.902Z,8.68
2022-12-19T22:21:37.286Z,9.07
2022-12-19T22:24:05.501Z,8.35
2022-12-19T22:26:33.390Z,11.38
2022-12-19T22:29:01.626Z,11.40
2022-12-19T22:31:31.987Z,10.90
2022-12-19T22:34:05.845Z,9.90
2022-12-19T22:36:39.209Z,7.82
2022-12-19T22:39:09.790Z,12.07
2022-12-19T22:41:39.008Z,9.88
2022-12-19T22:44:08.110Z,9.23
2022-12-19T22:46:37.994Z,10.10
2022-12-19T22:49:09.069Z,9.57
2022-12-19T22:51:38.202Z,7.87
2022-12-19T22:54:06.889Z,7.47
2022-12-19T22:56:35.860Z,8.68
2022-12-19T22:59:07.432Z,9.05
2022-12-19T23:01:45.084Z,10.40
2022-12-19T23:04:16.681Z,9.23
2022-12-19T23:06:45.044Z,9.55
2022-12-19T23:09:16.360Z,9.35
2022-12-19T23:11:47.663Z,8.93
2022-12-19T23:14:20.242Z,8.43
2022-12-19T23:16:51.524Z,9.05
2022-12-19T23:19:22.659Z,9.57
2022-12-19T23:21:50.804Z,8.80
2022-12-19T23:24:19.146Z,5.15
2022-12-19T23:26:46.975Z,12.15
2022-12-19T23:29:16.471Z,7.25
2022-12-19T23:31:46.741Z,10.10
2022-12-19T23:34:15.916Z,8.57
2022-12-19T23:37:10.422Z,9.23
2022-12-19T23:39:32.938Z,8.65
2022-12-19T23:42:01.235Z,7.25
2022-12-19T23:44:29.412Z,10.27
2022-12-19T23:47:02.993Z,9.60
2022-12-19T23:49:33.950Z,8.93
2022-12-19T23:52:01.959Z,8.65
2022-12-19T23:54:30.000Z,9.63
2022-12-19T23:56:58.228Z,9.63
2022-12-19T23:59:26.147Z,7.25
